Kramer, Nebraska
Current Conditions -  °F | °C
As of 6:54 PM on Friday 28 Nov 2014 (Local Time) from KLNK Reporting Station
Clear Clear  
Wind Chill: 52°   Ceiling: Unl
Heat Index: 52°   Visibility: 10mi
Dew Point: 32°   Wind: 12mph
Humidity: 47%   Direction: 190°S
Pressure: 29.66"   Gusts: NA
Location:  40.5918°N, 96.9749°W
Report Text: KLNK 290054Z 19010KT 10SM CLR 11/00 A2966 RMK AO2 SLP051 T01110000
Loading
Personal Weather Stations






























Interactive Weather Map New forecast layout! Learn more

10-Day Weather Forecast

Advertisements
Track Severe Weather on mobile